TimeHST,TemperatureF,Dew PointF,Humidity,Sea Level PressureIn,VisibilityMPH,Wind Direction,Wind SpeedMPH,Gust SpeedMPH,PrecipitationIn,Events,Conditions,WindDirDegrees,DateUTC
12:53 AM,66.0,63.0,90,30.10,10.0,SW,5.8,-,N/A,,Scattered Clouds,220,2013-04-20 10:53:00
1:53 AM,64.9,63.0,93,30.08,10.0,SW,3.5,-,N/A,,Partly Cloudy,220,2013-04-20 11:53:00
2:53 AM,66.0,63.0,90,30.07,10.0,WSW,6.9,-,N/A,,Mostly Cloudy,240,2013-04-20 12:53:00
3:53 AM,66.0,62.1,87,30.06,10.0,SW,6.9,-,N/A,,Clear,230,2013-04-20 13:53:00
4:53 AM,64.9,60.1,84,30.06,10.0,SW,8.1,-,N/A,,Clear,230,2013-04-20 14:53:00
5:53 AM,64.0,59.0,84,30.09,10.0,SW,6.9,-,N/A,,Partly Cloudy,230,2013-04-20 15:53:00
6:53 AM,66.0,59.0,78,30.10,10.0,SW,8.1,-,N/A,,Partly Cloudy,230,2013-04-20 16:53:00
7:53 AM,72.0,61.0,68,30.10,10.0,SSW,4.6,-,N/A,,Clear,210,2013-04-20 17:53:00
8:53 AM,75.9,61.0,60,30.11,10.0,Variable,5.8,-,N/A,,Partly Cloudy,0,2013-04-20 18:53:00
9:53 AM,79.0,63.0,58,30.10,10.0,Variable,4.6,-,N/A,,Scattered Clouds,0,2013-04-20 19:53:00
10:53 AM,80.1,64.0,58,30.09,10.0,SE,8.1,-,N/A,,Partly Cloudy,140,2013-04-20 20:53:00
11:53 AM,82.0,66.0,58,30.07,10.0,East,15.0,-,N/A,,Partly Cloudy,100,2013-04-20 21:53:00
12:53 PM,82.9,64.9,54,30.04,10.0,ESE,19.6,-,N/A,,Scattered Clouds,110,2013-04-20 22:53:00
1:53 PM,82.0,66.0,58,30.02,10.0,ESE,17.3,-,N/A,,Scattered Clouds,120,2013-04-20 23:53:00
2:53 PM,81.0,66.0,60,30.01,10.0,ESE,17.3,25.3,N/A,,Scattered Clouds,120,2013-04-21 00:53:00
3:53 PM,80.1,66.0,62,30.01,10.0,ESE,17.3,-,N/A,,Scattered Clouds,110,2013-04-21 01:53:00
4:53 PM,77.0,66.0,69,30.02,10.0,SE,15.0,21.9,N/A,,Scattered Clouds,130,2013-04-21 02:53:00
5:53 PM,75.9,66.9,74,30.03,10.0,ESE,9.2,-,N/A,,Overcast,120,2013-04-21 03:53:00
6:53 PM,73.9,66.0,76,30.05,10.0,SE,6.9,-,N/A,,Overcast,140,2013-04-21 04:53:00
7:53 PM,73.9,66.0,76,30.06,10.0,South,5.8,-,N/A,,Overcast,190,2013-04-21 05:53:00
8:53 PM,73.0,66.0,79,30.08,10.0,SSE,3.5,-,N/A,,Overcast,150,2013-04-21 06:53:00
9:53 PM,72.0,66.0,81,30.09,10.0,South,3.5,-,N/A,,Mostly Cloudy,170,2013-04-21 07:53:00
10:53 PM,70.0,66.0,87,30.08,10.0,SSE,4.6,-,N/A,,Clear,150,2013-04-21 08:53:00
11:10 PM,71.1,66.0,84,30.08,10.0,SSE,3.5,-,N/A,,Mostly Cloudy,150,2013-04-21 09:10:00
11:42 PM,72.0,66.9,84,30.07,10.0,South,4.6,-,0.00,,Overcast,170,2013-04-21 09:42:00
11:53 PM,72.0,66.9,84,30.07,10.0,SSE,3.5,-,0.00,Rain,Light Rain,160,2013-04-21 09:53:00